Etusivu
METAR-TAF:

METAR-TAF

Lentoasemat :

Öljynporauslautta

Norne Fpso, Norja

Leveyspiiri: 66-01-48N, Pituuspiiri: 008-04-48E, korkeus merenpinnasta: 10 m

Tämänhetkinen sää

Tämä raportti tehtiin 26 minuuttia sitten, kello 17.20 UTC
Tuuli 19 kn etelästä/kaakosta
Lämpötila 10°C
Kosteus 71%
Ilmanpaine 1014 hPa
Näkyvyys 10 km tai enemmän

METAR: ENNE 251720Z AUTO 16019KT 9999NDV NCD 10/05 Q1014 W///S3

Aika: 19:46 (17:46 UTC)

Sääennuste

Tämä raportti tehtiin 6 tuntia ja 46 minuuttia sitten, kello 11.00 UTC
Ennuste voimassa 25. päivästä klo 12 UTC - 25. päivään klo 17 UTC
Tuuli 28 kn kaakosta
Näkyvyys 10 km tai enemmän
ei pilviä alle 1500 m:ssä eikä cumulonimbus-pilviä
Tulossa
25. päivästä klo 12 UTC - 25. päivään klo 14 UTC
Tuuli 18 kn kaakosta

TAF: ENNE 251100Z 2512/2517 13028KT CAVOK BECMG 2512/2514 13018KT

Säähavainnot ja -ennusteet yli 4000 lentoasemalta (METAR- ja TAF-raportit).

Käytössä olevat sääasemat on merkitty karttaan keltaisilla ja punaisilla pisteillä.

Aseta hiiri pisteen päälle nähdäksesi sääaseman nimen.

Klikkaa sitten nähdäksesi säähavainnot ja -ennusteet.

Kartan vaihtaminen: klikkaa mustalla rastilla varustettuja vihreitä pisteitä, niin voit zoomata sisään; viivalla varustettua vihreää pistettä, niin voit zoomata ulos tai vihreitä nuolia, niin pääset viereisille kartoille.


METAR-TAF: